Airports United Kingdom Leeds Bradford Airport

Leeds Bradford Airport (EGNM / LBA)

Facts about Leeds Bradford Airport

Name Leeds Bradford Airport
City Leeds
Country United Kingdom
ICAO code EGNM
IATA code LBA
Elevation 207.5688 meters (681 feet)

Weather

METAR

Metar data retrieved Saturday, 20 July 2024 at 00:25 UTC (0 minutes ago)

EGNM 192350Z 29005KT CAVOK 18/14 Q1011

Live traffic

Navigraph Charts (account required)